createdAt,value
2018-12-30T00:00:33.047Z,1018.41
2018-12-30T00:01:30.982Z,1018.39
2018-12-30T00:02:30.922Z,1018.41
2018-12-30T00:03:32.553Z,1018.51
2018-12-30T00:04:30.935Z,1018.41
2018-12-30T00:05:30.826Z,1018.38
2018-12-30T00:06:30.845Z,1018.38
2018-12-30T00:07:30.757Z,1018.40
2018-12-30T00:08:30.746Z,1018.38
2018-12-30T00:09:30.752Z,1018.46
2018-12-30T00:10:30.665Z,1018.44
2018-12-30T00:11:30.661Z,1018.41
2018-12-30T00:12:30.605Z,1018.44
2018-12-30T00:13:30.675Z,1018.48
2018-12-30T00:14:30.550Z,1018.49
2018-12-30T00:15:30.592Z,1018.53
2018-12-30T00:16:30.482Z,1018.56
2018-12-30T00:17:30.497Z,1018.53
2018-12-30T00:18:30.419Z,1018.56
2018-12-30T00:19:30.409Z,1018.62
2018-12-30T00:20:30.364Z,1018.65
2018-12-30T00:21:30.419Z,1018.66
2018-12-30T00:22:30.300Z,1018.73
2018-12-30T00:23:30.335Z,1018.84
2018-12-30T00:24:30.233Z,1018.86
2018-12-30T00:25:30.267Z,1018.86
2018-12-30T00:26:30.180Z,1018.92
2018-12-30T00:27:30.271Z,1018.93
2018-12-30T00:28:30.113Z,1018.99
2018-12-30T00:29:30.167Z,1018.87
2018-12-30T00:30:30.061Z,1018.96
2018-12-30T00:31:30.077Z,1018.92
2018-12-30T00:32:29.994Z,1018.89
2018-12-30T00:33:30.086Z,1019.01
2018-12-30T00:34:29.931Z,1019.03
2018-12-30T00:35:30.919Z,1019.01
2018-12-30T00:36:29.875Z,1019.15
2018-12-30T00:37:29.933Z,1019.05
2018-12-30T00:38:29.806Z,1018.97
2018-12-30T00:39:29.819Z,1019.06
2018-12-30T00:40:29.743Z,1018.96
2018-12-30T00:41:29.738Z,1019.02
2018-12-30T00:42:29.682Z,1019.13
2018-12-30T00:43:29.747Z,1019.16
2018-12-30T00:44:29.626Z,1019.17
2018-12-30T00:45:29.651Z,1019.17
2018-12-30T00:46:29.577Z,1019.20
2018-12-30T00:47:29.569Z,1019.25
2018-12-30T00:48:29.503Z,1019.25
2018-12-30T00:49:30.504Z,1019.36
2018-12-30T00:50:29.441Z,1019.34
2018-12-30T00:51:29.494Z,1019.34
2018-12-30T00:52:29.380Z,1019.35
2018-12-30T00:53:30.420Z,1019.47
2018-12-30T00:54:29.327Z,1019.40
2018-12-30T00:55:29.411Z,1019.42
2018-12-30T00:56:29.260Z,1019.37
2018-12-30T00:57:29.231Z,1019.40
2018-12-30T00:58:29.196Z,1019.63
2018-12-30T00:59:30.172Z,1019.48
2018-12-30T01:00:29.142Z,1019.56
2018-12-30T01:01:29.153Z,1019.59
2018-12-30T01:02:29.068Z,1019.63
2018-12-30T01:03:29.058Z,1019.57
2018-12-30T01:04:29.009Z,1019.61
2018-12-30T01:05:29.077Z,1019.65
2018-12-30T01:06:28.946Z,1019.66
2018-12-30T01:07:28.974Z,1019.69
2018-12-30T01:08:28.887Z,1019.60
2018-12-30T01:09:28.889Z,1019.61
2018-12-30T01:10:28.829Z,1019.62
2018-12-30T01:11:28.898Z,1019.68
2018-12-30T01:12:29.033Z,1019.69
2018-12-30T01:13:28.816Z,1019.67
2018-12-30T01:14:28.703Z,1019.69
2018-12-30T01:15:28.726Z,1019.72
2018-12-30T01:16:28.645Z,1019.81
2018-12-30T01:17:28.628Z,1019.78
2018-12-30T01:18:28.636Z,1019.76
2018-12-30T01:19:28.643Z,1019.86
2018-12-30T01:20:28.518Z,1019.90
2018-12-30T01:21:28.558Z,1019.87
2018-12-30T01:22:28.454Z,1019.95
2018-12-30T01:23:28.466Z,1019.98
2018-12-30T01:24:28.398Z,1019.95
2018-12-30T01:25:28.475Z,1019.88
2018-12-30T01:26:28.340Z,1019.97
2018-12-30T01:27:28.387Z,1020.00
2018-12-30T01:28:28.274Z,1019.92
2018-12-30T01:29:28.296Z,1020.06
2018-12-30T01:30:28.215Z,1020.04
2018-12-30T01:31:28.209Z,1020.07
2018-12-30T01:32:28.149Z,1020.04
2018-12-30T01:33:28.219Z,1020.11
2018-12-30T01:34:28.101Z,1020.17
2018-12-30T01:35:28.131Z,1020.24
2018-12-30T01:36:28.036Z,1020.17
2018-12-30T01:37:28.043Z,1020.38
2018-12-30T01:38:27.974Z,1020.20
2018-12-30T01:39:27.954Z,1020.20
2018-12-30T01:40:27.958Z,1020.29
2018-12-30T01:41:27.965Z,1020.27
2018-12-30T01:42:27.854Z,1020.16
2018-12-30T01:43:27.886Z,1020.29
2018-12-30T01:44:27.794Z,1020.28
2018-12-30T01:45:27.786Z,1020.24
2018-12-30T01:46:27.722Z,1020.33
2018-12-30T01:47:27.801Z,1020.37
2018-12-30T01:48:27.680Z,1020.33
2018-12-30T01:49:27.705Z,1020.39
2018-12-30T01:50:27.601Z,1020.43
2018-12-30T01:51:33.002Z,1020.47
2018-12-30T01:52:27.546Z,1020.44
2018-12-30T01:53:27.528Z,1020.46
2018-12-30T01:54:27.473Z,1020.49
2018-12-30T01:55:27.539Z,1020.43
2018-12-30T01:56:27.423Z,1020.44
2018-12-30T01:57:27.450Z,1020.47
2018-12-30T01:58:27.360Z,1020.42
2018-12-30T01:59:27.362Z,1020.51
2018-12-30T02:00:27.293Z,1020.55
2018-12-30T02:01:27.376Z,1020.63
2018-12-30T02:02:27.231Z,1020.65
2018-12-30T02:03:27.285Z,1020.63
2018-12-30T02:04:27.179Z,1020.66
2018-12-30T02:05:27.198Z,1020.62
2018-12-30T02:06:27.107Z,1020.68
2018-12-30T02:07:27.079Z,1020.71
2018-12-30T02:08:27.116Z,1020.76
2018-12-30T02:09:27.022Z,1020.73
2018-12-30T02:10:28.052Z,1020.81
2018-12-30T02:11:26.976Z,1020.81
2018-12-30T02:12:41.684Z,1020.87
2018-12-30T02:13:26.902Z,1020.84
2018-12-30T02:14:26.875Z,1020.87
2018-12-30T02:15:26.843Z,1020.97
2018-12-30T02:16:33.621Z,1021.01
2018-12-30T02:17:26.784Z,1021.05
2018-12-30T02:18:47.747Z,1021.02
2018-12-30T02:19:26.728Z,1021.03
2018-12-30T02:20:28.730Z,1021.07
2018-12-30T02:21:26.656Z,1021.05
2018-12-30T02:22:26.710Z,1021.04
2018-12-30T02:23:26.588Z,1021.06
2018-12-30T02:24:26.607Z,1021.02
2018-12-30T02:25:26.540Z,1021.05
2018-12-30T02:26:26.513Z,1021.08
2018-12-30T02:27:26.476Z,1021.11
2018-12-30T02:28:26.529Z,1021.19
2018-12-30T02:29:26.406Z,1021.23
2018-12-30T02:30:26.438Z,1021.21
2018-12-30T02:31:26.345Z,1021.18
2018-12-30T02:32:26.351Z,1021.21
2018-12-30T02:33:26.301Z,1021.18
2018-12-30T02:34:26.374Z,1021.22
2018-12-30T02:35:26.224Z,1021.19
2018-12-30T02:36:26.278Z,1021.33
2018-12-30T02:37:26.172Z,1021.30
2018-12-30T02:38:26.188Z,1021.28
2018-12-30T02:39:26.108Z,1021.29
2018-12-30T02:40:26.098Z,1021.32
2018-12-30T02:41:26.044Z,1021.36
2018-12-30T02:42:27.050Z,1021.21
2018-12-30T02:43:25.984Z,1021.30
2018-12-30T02:44:26.018Z,1021.25
2018-12-30T02:45:25.922Z,1021.21
2018-12-30T02:46:25.931Z,1021.23
2018-12-30T02:47:25.868Z,1021.24
2018-12-30T02:48:27.885Z,1021.19
2018-12-30T02:49:25.798Z,1021.30
2018-12-30T02:50:25.848Z,1021.32
2018-12-30T02:51:25.745Z,1021.38
2018-12-30T02:52:25.764Z,1021.29
2018-12-30T02:53:25.671Z,1021.36
2018-12-30T02:54:25.672Z,1021.35
2018-12-30T02:55:25.615Z,1021.35
2018-12-30T02:56:25.682Z,1021.29
2018-12-30T02:57:25.557Z,1021.34
2018-12-30T02:58:26.627Z,1021.32
2018-12-30T02:59:25.568Z,1021.38
2018-12-30T03:00:25.517Z,1021.41
2018-12-30T03:01:25.430Z,1021.46
2018-12-30T03:02:25.427Z,1021.48
2018-12-30T03:03:25.364Z,1021.49
2018-12-30T03:04:25.540Z,1021.52
2018-12-30T03:05:25.350Z,1021.55
2018-12-30T03:06:25.339Z,1021.52
2018-12-30T03:07:25.251Z,1021.51
2018-12-30T03:08:25.251Z,1021.48
2018-12-30T03:09:25.185Z,1021.53
2018-12-30T03:10:25.280Z,1021.50
2018-12-30T03:11:25.115Z,1021.35
2018-12-30T03:12:25.177Z,1021.57
2018-12-30T03:13:25.065Z,1021.59
2018-12-30T03:14:25.093Z,1021.67
2018-12-30T03:15:25.011Z,1021.71
2018-12-30T03:16:24.996Z,1021.67
2018-12-30T03:17:24.939Z,1021.70
2018-12-30T03:18:25.007Z,1021.65
2018-12-30T03:19:24.877Z,1021.78
2018-12-30T03:20:24.921Z,1021.68
2018-12-30T03:21:24.821Z,1021.73
2018-12-30T03:22:24.832Z,1021.72
2018-12-30T03:23:24.759Z,1021.70
2018-12-30T03:24:24.742Z,1021.70
2018-12-30T03:25:24.698Z,1021.76
2018-12-30T03:26:24.753Z,1021.77
2018-12-30T03:27:24.643Z,1021.79
2018-12-30T03:28:24.661Z,1021.83
2018-12-30T03:29:24.589Z,1021.91
2018-12-30T03:30:24.573Z,1021.85
2018-12-30T03:31:24.520Z,1021.86
2018-12-30T03:32:24.602Z,1021.92
2018-12-30T03:33:24.445Z,1021.87
2018-12-30T03:34:24.492Z,1021.90
2018-12-30T03:35:24.385Z,1021.87
2018-12-30T03:36:25.429Z,1021.90
2018-12-30T03:37:24.348Z,1021.89
2018-12-30T03:38:24.316Z,1021.78
2018-12-30T03:39:24.270Z,1021.87
2018-12-30T03:40:24.245Z,1021.80
2018-12-30T03:41:24.232Z,1021.84
2018-12-30T03:42:24.175Z,1021.84
2018-12-30T03:43:24.246Z,1021.88
2018-12-30T03:44:24.108Z,1021.89
2018-12-30T03:45:24.157Z,1021.93
2018-12-30T03:46:24.049Z,1021.92
2018-12-30T03:47:24.066Z,1021.87
2018-12-30T03:48:24.002Z,1021.85
2018-12-30T03:49:23.978Z,1021.89
2018-12-30T03:50:23.936Z,1021.86
2018-12-30T03:51:23.983Z,1021.88
2018-12-30T03:52:23.868Z,1021.88
2018-12-30T03:53:23.902Z,1021.92
2018-12-30T03:54:23.869Z,1021.92
2018-12-30T03:55:23.779Z,1021.94
2018-12-30T03:56:23.761Z,1021.90
2018-12-30T03:57:23.828Z,1021.88
2018-12-30T03:58:23.678Z,1021.86
2018-12-30T03:59:23.738Z,1021.83
2018-12-30T04:00:23.620Z,1021.85
2018-12-30T04:01:23.648Z,1021.86
2018-12-30T04:02:23.570Z,1021.98
2018-12-30T04:03:23.564Z,1022.03
2018-12-30T04:04:23.505Z,1022.06
2018-12-30T04:05:23.572Z,1022.16
2018-12-30T04:06:23.437Z,1022.15
2018-12-30T04:07:23.489Z,1022.14
2018-12-30T04:08:23.380Z,1022.13
2018-12-30T04:09:23.400Z,1022.20
2018-12-30T04:10:23.329Z,1022.21
2018-12-30T04:11:23.411Z,1022.29
2018-12-30T04:12:23.251Z,1022.24
2018-12-30T04:13:23.321Z,1022.23
2018-12-30T04:14:23.198Z,1022.21
2018-12-30T04:15:23.232Z,1022.22
2018-12-30T04:16:23.135Z,1022.26
2018-12-30T04:17:23.146Z,1022.31
2018-12-30T04:18:23.077Z,1022.29
2018-12-30T04:19:23.163Z,1022.33
2018-12-30T04:20:23.011Z,1022.37
2018-12-30T04:21:23.211Z,1022.36
2018-12-30T04:22:22.964Z,1022.38
2018-12-30T04:23:22.975Z,1022.36
2018-12-30T04:24:22.894Z,1022.31
2018-12-30T04:25:22.897Z,1022.32
2018-12-30T04:26:22.835Z,1022.39
2018-12-30T04:27:22.894Z,1022.45
2018-12-30T04:28:22.833Z,1022.46
2018-12-30T04:29:22.805Z,1022.44
2018-12-30T04:30:22.707Z,1022.41
2018-12-30T04:31:22.718Z,1022.44
2018-12-30T04:32:22.644Z,1022.46
2018-12-30T04:33:22.743Z,1022.48
2018-12-30T04:34:22.585Z,1022.52
2018-12-30T04:35:22.643Z,1022.50
2018-12-30T04:36:22.536Z,1022.53
2018-12-30T04:37:22.556Z,1022.57
2018-12-30T04:38:22.465Z,1022.62
2018-12-30T04:39:22.468Z,1022.63
2018-12-30T04:40:22.407Z,1022.67
2018-12-30T04:41:22.481Z,1022.66
2018-12-30T04:42:22.334Z,1022.61
2018-12-30T04:43:22.408Z,1022.61
2018-12-30T04:44:22.280Z,1022.59
2018-12-30T04:45:22.308Z,1022.68
2018-12-30T04:46:22.233Z,1022.64
2018-12-30T04:47:22.311Z,1022.73
2018-12-30T04:48:22.157Z,1022.73
2018-12-30T04:49:22.211Z,1022.75
2018-12-30T04:50:22.131Z,1022.79
2018-12-30T04:51:22.147Z,1022.76
2018-12-30T04:52:25.881Z,1022.81
2018-12-30T04:53:22.036Z,1022.84
2018-12-30T04:54:21.971Z,1022.85
2018-12-30T04:55:22.048Z,1022.78
2018-12-30T04:56:21.910Z,1022.77
2018-12-30T04:57:21.964Z,1022.79
2018-12-30T04:58:21.847Z,1022.90
2018-12-30T04:59:21.872Z,1022.95
2018-12-30T05:00:21.786Z,1022.91
2018-12-30T05:01:22.803Z,1022.88
2018-12-30T05:02:21.731Z,1022.82
2018-12-30T05:03:21.791Z,1022.81
2018-12-30T05:04:21.688Z,1022.74
2018-12-30T05:05:23.274Z,1022.79
2018-12-30T05:06:21.605Z,1022.79
2018-12-30T05:07:21.618Z,1022.80
2018-12-30T05:08:21.552Z,1022.77
2018-12-30T05:09:21.526Z,1022.81
2018-12-30T05:10:21.482Z,1022.86
2018-12-30T05:11:21.536Z,1022.81
2018-12-30T05:12:21.428Z,1022.82
2018-12-30T05:13:21.455Z,1022.82
2018-12-30T05:14:21.370Z,1022.82
2018-12-30T05:15:21.364Z,1022.79
2018-12-30T05:16:21.310Z,1022.75
2018-12-30T05:17:21.378Z,1022.76
2018-12-30T05:18:21.237Z,1022.77
2018-12-30T05:19:21.272Z,1022.77
2018-12-30T05:20:21.188Z,1022.78
2018-12-30T05:21:21.202Z,1022.64
2018-12-30T05:22:21.117Z,1022.59
2018-12-30T05:23:21.101Z,1022.46
2018-12-30T05:24:21.052Z,1022.48
2018-12-30T05:25:21.116Z,1022.54
2018-12-30T05:26:20.997Z,1022.66
2018-12-30T05:27:21.024Z,1022.79
2018-12-30T05:28:20.929Z,1022.79
2018-12-30T05:29:20.943Z,1022.83
2018-12-30T05:30:20.875Z,1022.89
2018-12-30T05:31:21.875Z,1022.82
2018-12-30T05:32:20.815Z,1022.84
2018-12-30T05:33:20.860Z,1022.86
2018-12-30T05:34:20.751Z,1022.87
2018-12-30T05:35:20.770Z,1022.96
2018-12-30T05:36:20.691Z,1023.09
2018-12-30T05:37:20.680Z,1023.10
2018-12-30T05:38:20.851Z,1023.08
2018-12-30T05:39:20.692Z,1023.11
2018-12-30T05:40:20.568Z,1023.13
2018-12-30T05:41:20.606Z,1023.15
2018-12-30T05:42:20.519Z,1023.14
2018-12-30T05:43:20.514Z,1023.19
2018-12-30T05:44:20.445Z,1023.29
2018-12-30T05:45:20.424Z,1023.33
2018-12-30T05:46:20.377Z,1023.28
2018-12-30T05:47:20.436Z,1023.30
2018-12-30T05:48:20.321Z,1023.23
2018-12-30T05:49:20.348Z,1023.17
2018-12-30T05:50:20.257Z,1023.11
2018-12-30T05:51:20.257Z,1023.21
2018-12-30T05:52:20.196Z,1023.30
2018-12-30T05:53:20.271Z,1023.27
2018-12-30T05:54:20.135Z,1023.21
2018-12-30T05:55:20.182Z,1023.09
2018-12-30T05:56:20.075Z,1023.11
2018-12-30T05:57:20.121Z,1023.11
2018-12-30T05:58:20.014Z,1023.18
2018-12-30T05:59:20.005Z,1023.32
2018-12-30T06:00:19.950Z,1023.35
2018-12-30T06:01:20.014Z,1023.24
2018-12-30T06:02:19.893Z,1023.12
2018-12-30T06:03:19.928Z,1023.11
2018-12-30T06:04:19.828Z,1023.10
2018-12-30T06:05:20.869Z,1023.16
2018-12-30T06:06:19.765Z,1023.30
2018-12-30T06:07:19.938Z,1023.28
2018-12-30T06:08:19.704Z,1023.36
2018-12-30T06:09:19.759Z,1023.37
2018-12-30T06:10:19.647Z,1023.38
2018-12-30T06:11:19.669Z,1023.39
2018-12-30T06:12:19.591Z,1023.46
2018-12-30T06:13:19.571Z,1023.43
2018-12-30T06:14:19.534Z,1023.46
2018-12-30T06:15:19.593Z,1023.46
2018-12-30T06:16:19.458Z,1023.48
2018-12-30T06:17:19.507Z,1023.44
2018-12-30T06:18:19.414Z,1023.51
2018-12-30T06:19:19.418Z,1023.49
2018-12-30T06:20:19.353Z,1023.47
2018-12-30T06:21:19.327Z,1023.50
2018-12-30T06:22:19.285Z,1023.53
2018-12-30T06:23:19.343Z,1023.57
2018-12-30T06:24:19.232Z,1023.56
2018-12-30T06:25:19.308Z,1023.55
2018-12-30T06:26:19.166Z,1023.59
2018-12-30T06:27:19.158Z,1023.63
2018-12-30T06:28:19.110Z,1023.61
2018-12-30T06:29:19.173Z,1023.63
2018-12-30T06:30:19.038Z,1023.70
2018-12-30T06:31:19.090Z,1023.66
2018-12-30T06:32:18.987Z,1023.66
2018-12-30T06:33:20.012Z,1023.68
2018-12-30T06:34:18.914Z,1023.70
2018-12-30T06:35:18.912Z,1023.71
2018-12-30T06:36:18.853Z,1023.72
2018-12-30T06:37:18.916Z,1023.76
2018-12-30T06:38:18.788Z,1023.77
2018-12-30T06:39:18.827Z,1023.79
2018-12-30T06:40:18.727Z,1023.74
2018-12-30T06:41:18.753Z,1023.76
2018-12-30T06:42:18.668Z,1023.77
2018-12-30T06:43:18.749Z,1023.77
2018-12-30T06:44:18.614Z,1023.78
2018-12-30T06:45:18.661Z,1023.81
2018-12-30T06:46:18.551Z,1023.84
2018-12-30T06:47:18.566Z,1023.79
2018-12-30T06:48:18.494Z,1023.84
2018-12-30T06:49:18.478Z,1023.91
2018-12-30T06:50:18.427Z,1023.88
2018-12-30T06:51:18.488Z,1023.82
2018-12-30T06:52:18.363Z,1023.81
2018-12-30T06:53:18.404Z,1023.80
2018-12-30T06:54:18.304Z,1023.80
2018-12-30T06:55:18.314Z,1023.87
2018-12-30T06:56:18.252Z,1023.90
2018-12-30T06:57:18.221Z,1023.87
2018-12-30T06:58:18.178Z,1023.87
2018-12-30T06:59:18.238Z,1023.85
2018-12-30T07:00:18.116Z,1023.90
2018-12-30T07:01:18.147Z,1023.91
2018-12-30T07:02:18.057Z,1023.89
2018-12-30T07:03:18.027Z,1023.93
2018-12-30T07:04:18.093Z,1023.93
2018-12-30T07:05:17.966Z,1023.91
2018-12-30T07:06:18.016Z,1023.95
2018-12-30T07:07:17.909Z,1023.99
2018-12-30T07:08:18.018Z,1024.01
2018-12-30T07:09:17.861Z,1023.98
2018-12-30T07:10:17.943Z,1023.93
2018-12-30T07:11:17.781Z,1023.92
2018-12-30T07:12:17.841Z,1023.85
2018-12-30T07:13:17.724Z,1023.88
2018-12-30T07:14:18.795Z,1023.84
2018-12-30T07:15:17.672Z,1023.89
2018-12-30T07:16:17.766Z,1023.94
2018-12-30T07:19:05.436Z,1023.93
2018-12-30T07:20:09.429Z,1023.91
2018-12-30T07:22:15.263Z,1023.88
2018-12-30T07:23:09.752Z,1023.87
2018-12-30T07:24:59.233Z,1023.91
2018-12-30T07:25:59.219Z,1023.89
2018-12-30T07:26:59.378Z,1023.91
2018-12-30T07:27:59.143Z,1023.90
2018-12-30T07:28:59.118Z,1023.87
2018-12-30T07:29:59.080Z,1023.83
2018-12-30T07:30:59.057Z,1023.76
2018-12-30T07:31:59.207Z,1023.79
2018-12-30T07:32:58.984Z,1023.82
2018-12-30T07:33:59.117Z,1023.85
2018-12-30T07:34:58.924Z,1023.84
2018-12-30T07:35:59.021Z,1023.88
2018-12-30T07:36:58.864Z,1023.86
2018-12-30T07:37:58.827Z,1023.85
2018-12-30T07:38:58.842Z,1023.88
2018-12-30T07:39:58.781Z,1023.88
2018-12-30T07:41:00.807Z,1023.90
2018-12-30T07:41:58.718Z,1023.94
2018-12-30T07:42:58.768Z,1023.97
2018-12-30T07:43:58.656Z,1024.02
2018-12-30T07:44:58.682Z,1024.03
2018-12-30T07:45:58.586Z,1024.04
2018-12-30T07:46:59.619Z,1024.06
2018-12-30T07:47:58.534Z,1024.08
2018-12-30T07:48:58.605Z,1024.09
2018-12-30T07:49:58.476Z,1024.10
2018-12-30T07:50:58.519Z,1024.14
2018-12-30T07:51:58.404Z,1024.17
2018-12-30T07:52:58.427Z,1024.16
2018-12-30T07:53:58.360Z,1024.18
2018-12-30T07:54:58.344Z,1024.18
2018-12-30T07:55:58.278Z,1024.19
2018-12-30T07:56:58.352Z,1024.19
2018-12-30T07:57:58.218Z,1024.16
2018-12-30T07:58:58.262Z,1024.16
2018-12-30T07:59:58.163Z,1024.16
2018-12-30T08:00:58.176Z,1024.18
2018-12-30T08:01:58.103Z,1024.18
2018-12-30T08:02:58.274Z,1024.19
2018-12-30T08:03:58.048Z,1024.11
2018-12-30T08:04:59.207Z,1024.14
2018-12-30T08:05:57.979Z,1024.10
2018-12-30T08:06:58.092Z,1024.14
2018-12-30T08:07:57.922Z,1024.14
2018-12-30T08:08:58.004Z,1024.13
2018-12-30T08:09:57.860Z,1024.12
2018-12-30T08:10:58.032Z,1024.10
2018-12-30T08:11:57.796Z,1024.06
2018-12-30T08:12:57.972Z,1024.08
2018-12-30T08:13:57.742Z,1024.03
2018-12-30T08:14:57.839Z,1024.02
2018-12-30T08:15:57.677Z,1024.05
2018-12-30T08:16:57.854Z,1024.08
2018-12-30T08:17:57.608Z,1024.09
2018-12-30T08:18:57.767Z,1024.07
2018-12-30T08:19:57.550Z,1024.20
2018-12-30T08:20:57.773Z,1024.17
2018-12-30T08:21:57.492Z,1024.17
2018-12-30T08:22:57.494Z,1024.20
2018-12-30T08:23:57.437Z,1024.15
2018-12-30T08:24:57.511Z,1024.18
2018-12-30T08:25:57.374Z,1024.26
2018-12-30T08:26:57.421Z,1024.22
2018-12-30T08:27:57.316Z,1024.25
2018-12-30T08:28:57.333Z,1024.26
2018-12-30T08:29:57.254Z,1024.29
2018-12-30T08:30:57.247Z,1024.28
2018-12-30T08:31:57.185Z,1024.31
2018-12-30T08:32:57.258Z,1024.25
2018-12-30T08:33:57.122Z,1024.23
2018-12-30T08:34:57.176Z,1024.28
2018-12-30T08:35:57.064Z,1024.27
2018-12-30T08:36:57.081Z,1024.33
2018-12-30T08:37:56.998Z,1024.29
2018-12-30T08:38:57.106Z,1024.26
2018-12-30T08:39:56.943Z,1024.32
2018-12-30T08:40:56.917Z,1024.29
2018-12-30T08:41:56.877Z,1024.28
2018-12-30T08:42:56.914Z,1024.26
2018-12-30T08:43:56.828Z,1024.25
2018-12-30T08:44:56.829Z,1024.23
2018-12-30T08:45:56.799Z,1024.20
2018-12-30T08:46:58.784Z,1024.24
2018-12-30T08:47:56.702Z,1024.27
2018-12-30T08:48:56.758Z,1024.28
2018-12-30T08:49:56.634Z,1024.32
2018-12-30T08:51:03.634Z,1024.27
2018-12-30T08:51:56.577Z,1024.27
2018-12-30T08:52:56.694Z,1024.28
2018-12-30T08:53:56.518Z,1024.32
2018-12-30T08:54:56.589Z,1024.34
2018-12-30T08:55:56.451Z,1024.35
2018-12-30T08:56:56.519Z,1024.27
2018-12-30T08:57:56.390Z,1024.28
2018-12-30T08:58:56.426Z,1024.28
2018-12-30T08:59:56.331Z,1024.29
2018-12-30T09:00:56.425Z,1024.26
2018-12-30T09:01:56.266Z,1024.26
2018-12-30T09:02:56.337Z,1024.24
2018-12-30T09:03:56.215Z,1024.21
2018-12-30T09:04:57.765Z,1024.10
2018-12-30T09:05:56.152Z,1024.11
2018-12-30T09:06:58.274Z,1024.08
2018-12-30T09:07:56.092Z,1024.11
2018-12-30T09:08:56.254Z,1024.01
2018-12-30T09:09:56.022Z,1024.03
2018-12-30T09:10:56.062Z,1024.07
2018-12-30T09:11:55.959Z,1024.06
2018-12-30T09:12:57.561Z,1024.09
2018-12-30T09:13:55.905Z,1024.12
2018-12-30T09:14:55.983Z,1024.08
2018-12-30T09:15:55.832Z,1024.22
2018-12-30T09:16:55.893Z,1024.21
2018-12-30T09:17:55.782Z,1024.25
2018-12-30T09:18:56.824Z,1024.27
2018-12-30T09:19:55.718Z,1024.27
2018-12-30T09:20:56.750Z,1024.30
2018-12-30T09:21:55.659Z,1024.32
2018-12-30T09:23:12.625Z,1024.29
2018-12-30T09:23:55.642Z,1024.29
2018-12-30T09:25:11.659Z,1024.29
2018-12-30T09:25:55.535Z,1024.27
2018-12-30T09:27:11.499Z,1024.22
2018-12-30T09:27:56.992Z,1024.25
2018-12-30T09:28:55.561Z,1024.31
2018-12-30T09:29:55.438Z,1024.38
2018-12-30T09:30:55.472Z,1024.39
2018-12-30T09:31:55.351Z,1024.38
2018-12-30T09:32:55.483Z,1024.35
2018-12-30T09:33:55.293Z,1024.28
2018-12-30T09:34:55.395Z,1024.29
2018-12-30T09:35:55.241Z,1024.35
2018-12-30T09:36:55.306Z,1024.40
2018-12-30T09:37:55.165Z,1024.39
2018-12-30T09:38:55.145Z,1024.42
2018-12-30T09:39:55.142Z,1024.45
2018-12-30T09:40:55.093Z,1024.48
2018-12-30T09:41:55.046Z,1024.56
2018-12-30T09:42:56.067Z,1024.55
2018-12-30T09:43:54.982Z,1024.42
2018-12-30T09:44:56.069Z,1024.45
2018-12-30T09:45:54.930Z,1024.48
2018-12-30T09:46:55.069Z,1024.44
2018-12-30T09:47:54.872Z,1024.47
2018-12-30T09:48:54.871Z,1024.53
2018-12-30T09:49:54.814Z,1024.64
2018-12-30T09:50:54.891Z,1024.69
2018-12-30T09:51:54.756Z,1024.65
2018-12-30T09:52:54.795Z,1024.69
2018-12-30T09:53:54.678Z,1024.69
2018-12-30T09:54:56.759Z,1024.71
2018-12-30T09:55:54.641Z,1024.79
2018-12-30T09:56:54.767Z,1024.81
2018-12-30T09:57:54.584Z,1024.84
2018-12-30T09:58:54.639Z,1024.81
2018-12-30T09:59:54.497Z,1024.80
2018-12-30T10:00:54.549Z,1024.76
2018-12-30T10:01:54.450Z,1024.74
2018-12-30T10:02:54.453Z,1024.73
2018-12-30T10:03:54.385Z,1024.75
2018-12-30T10:04:54.469Z,1024.77
2018-12-30T10:05:54.320Z,1024.75
2018-12-30T10:06:54.394Z,1024.80
2018-12-30T10:07:54.263Z,1024.75
2018-12-30T10:08:54.405Z,1024.73
2018-12-30T10:09:54.196Z,1024.73
2018-12-30T10:10:54.203Z,1024.82
2018-12-30T10:11:54.136Z,1024.84
2018-12-30T10:12:54.238Z,1024.79
2018-12-30T10:13:54.076Z,1024.81
2018-12-30T10:14:54.125Z,1024.84
2018-12-30T10:15:54.007Z,1024.79
2018-12-30T10:16:54.034Z,1024.77
2018-12-30T10:17:53.975Z,1024.81
2018-12-30T10:18:54.073Z,1024.78
2018-12-30T10:19:53.889Z,1024.78
2018-12-30T10:20:53.957Z,1024.73
2018-12-30T10:21:53.842Z,1024.74
2018-12-30T10:22:58.805Z,1024.75
2018-12-30T10:23:53.768Z,1024.71
2018-12-30T10:24:53.788Z,1024.73
2018-12-30T10:25:53.728Z,1024.71
2018-12-30T10:26:53.808Z,1024.75
2018-12-30T10:27:53.645Z,1024.73
2018-12-30T10:28:53.724Z,1024.73
2018-12-30T10:29:53.588Z,1024.71
2018-12-30T10:30:53.682Z,1024.69
2018-12-30T10:31:53.603Z,1024.69
2018-12-30T10:32:53.580Z,1024.64
2018-12-30T10:33:53.467Z,1024.64
2018-12-30T10:34:53.553Z,1024.69
2018-12-30T10:35:53.405Z,1024.70
2018-12-30T10:36:53.486Z,1024.68
2018-12-30T10:37:53.397Z,1024.65
2018-12-30T10:38:53.377Z,1024.63
2018-12-30T10:39:53.289Z,1024.59
2018-12-30T10:40:53.296Z,1024.62
2018-12-30T10:41:53.221Z,1024.61
2018-12-30T10:42:53.234Z,1024.64
2018-12-30T10:43:53.156Z,1024.66
2018-12-30T10:44:53.218Z,1024.62
2018-12-30T10:45:53.105Z,1024.57
2018-12-30T10:46:54.105Z,1024.56
2018-12-30T10:47:53.040Z,1024.54
2018-12-30T10:48:53.095Z,1024.51
2018-12-30T10:49:52.979Z,1024.51
2018-12-30T10:50:53.015Z,1024.54
2018-12-30T10:51:52.926Z,1024.51
2018-12-30T10:52:52.921Z,1024.50
2018-12-30T10:54:00.404Z,1024.51
2018-12-30T10:54:52.932Z,1024.51
2018-12-30T10:55:52.788Z,1024.50
2018-12-30T10:56:52.840Z,1024.53
2018-12-30T10:57:52.741Z,1024.51
2018-12-30T10:58:52.752Z,1024.52
2018-12-30T10:59:52.681Z,1024.51
2018-12-30T11:00:52.676Z,1024.56
2018-12-30T11:01:52.606Z,1024.56
2018-12-30T11:02:52.586Z,1024.59
2018-12-30T11:03:52.554Z,1024.59
2018-12-30T11:04:52.525Z,1024.62
2018-12-30T11:05:52.491Z,1024.63
2018-12-30T11:06:52.499Z,1024.62
2018-12-30T11:07:52.438Z,1024.60
2018-12-30T11:08:52.509Z,1024.64
2018-12-30T11:09:52.374Z,1024.63
2018-12-30T11:10:52.340Z,1024.64
2018-12-30T11:11:52.310Z,1024.63
2018-12-30T11:12:52.287Z,1024.61
2018-12-30T11:13:52.247Z,1024.59
2018-12-30T11:14:52.243Z,1024.52
2018-12-30T11:15:52.186Z,1024.56
2018-12-30T11:16:52.262Z,1024.49
2018-12-30T11:17:52.121Z,1024.50
2018-12-30T11:18:52.175Z,1024.49
2018-12-30T11:19:52.077Z,1024.46
2018-12-30T11:20:52.084Z,1024.45
2018-12-30T11:21:52.004Z,1024.43
2018-12-30T11:22:52.001Z,1024.45
2018-12-30T11:23:51.942Z,1024.48
2018-12-30T11:24:52.011Z,1024.50
2018-12-30T11:25:51.886Z,1024.50
2018-12-30T11:26:51.864Z,1024.48
2018-12-30T11:27:51.823Z,1024.48
2018-12-30T11:28:51.837Z,1024.46
2018-12-30T11:29:51.765Z,1024.51
2018-12-30T11:30:51.848Z,1024.48
2018-12-30T11:31:51.713Z,1024.49
2018-12-30T11:32:51.760Z,1024.48
2018-12-30T11:33:51.658Z,1024.49
2018-12-30T11:34:51.671Z,1024.46
2018-12-30T11:35:51.584Z,1024.52
2018-12-30T11:36:51.577Z,1024.55
2018-12-30T11:37:51.521Z,1024.54
2018-12-30T11:38:51.593Z,1024.57
2018-12-30T11:39:51.450Z,1024.53
2018-12-30T11:40:51.508Z,1024.54
2018-12-30T11:41:51.404Z,1024.52
2018-12-30T11:42:51.417Z,1024.53
2018-12-30T11:43:51.331Z,1024.52
2018-12-30T11:44:51.328Z,1024.44
2018-12-30T11:45:51.276Z,1024.48
2018-12-30T11:46:51.346Z,1024.43
2018-12-30T11:47:51.217Z,1024.38
2018-12-30T11:48:51.252Z,1024.37
2018-12-30T11:49:51.152Z,1024.37
2018-12-30T11:50:51.271Z,1024.36
2018-12-30T11:51:51.089Z,1024.35
2018-12-30T11:52:51.082Z,1024.37
2018-12-30T11:53:51.032Z,1024.33
2018-12-30T11:54:51.101Z,1024.25
2018-12-30T11:55:50.980Z,1024.27
2018-12-30T11:56:51.013Z,1024.18
2018-12-30T11:57:50.916Z,1024.19
2018-12-30T11:58:51.014Z,1024.21
2018-12-30T11:59:50.851Z,1024.18
2018-12-30T12:00:50.936Z,1024.23
2018-12-30T12:01:50.799Z,1024.19
2018-12-30T12:02:50.840Z,1024.18
2018-12-30T12:03:50.735Z,1024.22
2018-12-30T12:04:50.753Z,1024.12
2018-12-30T12:05:50.674Z,1024.16
2018-12-30T12:06:50.662Z,1024.13
2018-12-30T12:07:50.629Z,1024.09
2018-12-30T12:08:50.692Z,1024.04